Time;durP1;ratioP1;P1;durP2;ratioP2;P2;SDS_P1;SDS_P2;PMS_P1;PMS_P2;Temp;Humidity;BMP_temperature;BMP_pressure;BME280_temperature;BME280_humidity;BME280_pressure;Samples;Min_cycle;Max_cycle;Signal;HPM_P1;HPM_P2
2022/04/06 00:05:24;;;;;;;1.05;0.70;;;;;;;19.63;40.15;95804.16;10280227;28;20473;-55
2022/04/06 00:10:43;;;;;;;0.98;0.80;;;;;;;19.62;40.17;95801.78;10283954;28;20058;-56
2022/04/06 00:16:03;;;;;;;1.42;0.90;;;;;;;19.62;40.27;95797.19;10284111;28;20055;-57
2022/04/06 00:21:25;;;;;;;1.52;0.80;;;;;;;19.59;40.38;95800.56;10286555;28;20453;-56
2022/04/06 00:26:45;;;;;;;1.05;0.80;;;;;;;19.59;40.23;95807.91;10284597;28;20082;-55
2022/04/06 00:32:04;;;;;;;1.00;0.65;;;;;;;19.58;40.16;95798.22;10284562;28;20442;-56
2022/04/06 00:37:24;;;;;;;1.15;0.80;;;;;;;19.56;40.15;95802.06;10275408;28;20047;-56
2022/04/06 00:42:43;;;;;;;1.25;0.70;;;;;;;19.56;40.20;95803.97;10283847;28;20057;-56
2022/04/06 00:48:03;;;;;;;1.30;0.65;;;;;;;19.55;40.14;95808.59;10286765;28;21732;-57
2022/04/06 00:53:23;;;;;;;1.00;0.80;;;;;;;19.53;40.21;95804.69;10285678;28;20078;-57
2022/04/06 00:58:43;;;;;;;0.95;0.70;;;;;;;19.53;40.14;95805.44;10282804;28;20537;-55
2022/04/06 01:04:03;;;;;;;1.20;0.70;;;;;;;19.51;40.13;95805.03;10297252;28;20066;-56
2022/04/06 01:09:22;;;;;;;0.82;0.70;;;;;;;19.50;40.16;95806.16;10296887;28;20059;-56
2022/04/06 01:14:42;;;;;;;1.80;0.70;;;;;;;19.49;40.10;95807.28;10305584;28;20053;-56
2022/04/06 01:20:07;;;;;;;1.15;0.63;;;;;;;19.49;40.19;95807.28;10292148;28;20054;-56
2022/04/06 01:25:27;;;;;;;1.02;0.80;;;;;;;19.46;40.23;95799.88;10296152;28;20069;-56
2022/04/06 01:30:46;;;;;;;1.48;0.80;;;;;;;19.45;40.24;95801.00;10292227;28;20062;-54
2022/04/06 01:36:06;;;;;;;0.60;0.60;;;;;;;19.44;40.16;95799.44;10292065;28;20046;-56
2022/04/06 01:41:31;;;;;;;2.00;0.80;;;;;;;19.43;40.23;95791.69;10288815;28;20194;-56
2022/04/06 01:46:50;;;;;;;0.70;0.60;;;;;;;19.42;40.16;95798.22;10300999;28;20035;-56
2022/04/06 01:52:12;;;;;;;1.15;0.60;;;;;;;19.41;40.21;95802.84;10301327;28;20046;-55
2022/04/06 01:57:32;;;;;;;0.90;0.55;;;;;;;19.40;40.29;95803.97;10305031;28;20502;-56
2022/04/06 02:02:53;;;;;;;1.00;0.80;;;;;;;19.38;40.21;95798.13;10304626;28;20590;-56
2022/04/06 02:08:12;;;;;;;0.73;0.55;;;;;;;19.37;40.20;95804.66;10289787;28;20081;-53
2022/04/06 02:13:32;;;;;;;1.13;0.68;;;;;;;19.36;40.15;95809.25;10289028;28;20054;-57
2022/04/06 02:18:51;;;;;;;1.02;0.63;;;;;;;19.34;40.18;95802.66;10290406;28;20057;-56
2022/04/06 02:24:11;;;;;;;0.50;0.50;;;;;;;19.34;40.20;95808.81;10291730;28;20096;-56
2022/04/06 02:29:30;;;;;;;0.70;0.60;;;;;;;19.32;40.24;95789.47;10298568;28;20047;-55
2022/04/06 02:34:50;;;;;;;0.95;0.60;;;;;;;19.31;40.16;95789.84;10286489;28;20042;-56
2022/04/06 02:40:11;;;;;;;0.65;0.65;;;;;;;19.30;40.21;95793.66;10266029;28;20593;-56
2022/04/06 02:45:31;;;;;;;0.55;0.50;;;;;;;19.29;40.14;95792.91;10268224;28;20044;-56
2022/04/06 02:50:50;;;;;;;0.52;0.50;;;;;;;19.28;40.12;95793.22;10300542;28;20039;-56
2022/04/06 02:56:09;;;;;;;0.98;0.55;;;;;;;19.27;40.17;95788.97;10287897;28;20413;-56
2022/04/06 03:01:29;;;;;;;1.42;0.63;;;;;;;19.25;40.19;95773.13;10287493;28;20125;-55
2022/04/06 03:06:49;;;;;;;0.57;0.55;;;;;;;19.25;40.03;95773.13;10284340;28;20059;-55
2022/04/06 03:12:08;;;;;;;1.83;0.60;;;;;;;19.24;40.06;95768.06;10297936;28;20046;-56
2022/04/06 03:17:28;;;;;;;0.52;0.52;;;;;;;19.22;40.13;95763.00;10287222;28;20066;-55
2022/04/06 03:22:47;;;;;;;0.47;0.47;;;;;;;19.21;40.20;95761.44;10288705;28;20503;-54
2022/04/06 03:28:06;;;;;;;0.52;0.50;;;;;;;19.21;40.21;95755.25;10280140;28;20426;-55
2022/04/06 03:33:26;;;;;;;0.73;0.73;;;;;;;19.19;40.15;95752.09;10287835;28;20062;-53
2022/04/06 03:38:45;;;;;;;1.17;0.50;;;;;;;19.17;40.13;95755.94;10287477;28;20058;-53
2022/04/06 03:44:05;;;;;;;0.50;0.50;;;;;;;19.17;40.06;95753.25;10285794;28;20050;-54
2022/04/06 03:49:25;;;;;;;0.60;0.60;;;;;;;19.16;40.18;95761.69;10299307;28;20039;-56
2022/04/06 03:54:46;;;;;;;0.50;0.50;;;;;;;19.14;40.02;95756.63;10286954;28;20517;-53
2022/04/06 04:00:08;;;;;;;0.60;0.60;;;;;;;19.13;40.32;95759.66;10285025;28;20054;-56
2022/04/06 04:05:28;;;;;;;1.13;0.50;;;;;;;19.14;40.25;95755.84;10284520;28;20498;-57
2022/04/06 04:10:47;;;;;;;1.63;0.80;;;;;;;19.13;40.85;95746.97;10291262;28;20054;-54
2022/04/06 04:16:08;;;;;;;0.60;0.60;;;;;;;19.14;40.74;95766.66;10286981;28;20049;-55
2022/04/06 04:21:33;;;;;;;1.05;0.70;;;;;;;19.15;41.03;95768.19;10287478;28;20089;-56
2022/04/06 04:26:53;;;;;;;2.03;0.52;;;;;;;19.15;41.16;95763.63;10289585;28;20062;-54
2022/04/06 04:32:14;;;;;;;0.88;0.70;;;;;;;19.16;41.34;95759.75;10272293;28;20055;-56
2022/04/06 04:37:35;;;;;;;1.25;0.73;;;;;;;19.20;41.35;95759.88;10285575;28;20054;-55
2022/04/06 04:42:55;;;;;;;1.40;0.70;;;;;;;19.22;41.42;95764.91;10281976;28;20054;-56
2022/04/06 04:48:15;;;;;;;0.95;0.70;;;;;;;19.25;41.64;95734.50;10295212;28;20066;-56
2022/04/06 04:53:34;;;;;;;2.30;0.60;;;;;;;19.26;41.72;95742.28;10298858;28;20506;-52
2022/04/06 04:58:53;;;;;;;1.00;0.47;;;;;;;19.29;41.77;95768.59;10293476;28;20051;-55
2022/04/06 05:04:13;;;;;;;7.53;1.88;;;;;;;19.32;41.72;95777.91;10305578;28;20395;-54
2022/04/06 05:09:33;;;;;;;9.90;2.20;;;;;;;19.33;41.57;95776.78;10296580;28;20065;-56
2022/04/06 05:14:52;;;;;;;8.55;2.33;;;;;;;19.37;41.70;95785.75;10290383;28;20106;-55
2022/04/06 05:20:12;;;;;;;8.32;3.13;;;;;;;19.40;41.54;95768.06;10286923;28;20121;-55
2022/04/06 05:25:31;;;;;;;9.43;2.80;;;;;;;19.43;41.61;95789.00;10291559;28;20051;-53
2022/04/06 05:30:51;;;;;;;8.13;2.58;;;;;;;19.47;41.67;95797.97;10284524;28;20063;-56
2022/04/06 05:36:11;;;;;;;10.50;2.90;;;;;;;19.50;41.66;95803.47;10298633;28;20039;-56
2022/04/06 05:41:30;;;;;;;10.35;3.28;;;;;;;19.53;41.51;95799.28;10293245;28;20095;-56
2022/04/06 05:46:50;;;;;;;11.38;3.50;;;;;;;19.56;41.53;95812.06;10303102;28;20045;-56
2022/04/06 05:52:09;;;;;;;9.45;3.03;;;;;;;19.58;41.52;95809.03;10286527;28;20050;-56
2022/04/06 05:57:29;;;;;;;10.57;3.33;;;;;;;19.59;41.39;95811.38;10289997;28;20721;-53
2022/04/06 06:02:49;;;;;;;7.97;3.05;;;;;;;19.61;41.25;95802.94;10290563;28;20054;-54
2022/04/06 06:08:09;;;;;;;9.55;3.30;;;;;;;19.63;41.22;95809.56;10288257;28;20055;-55
2022/04/06 06:13:28;;;;;;;8.77;3.40;;;;;;;19.65;41.32;95793.78;10293171;28;20538;-55
2022/04/06 06:18:48;;;;;;;10.25;3.53;;;;;;;19.65;41.24;95791.06;10278280;28;20062;-55
2022/04/06 06:24:07;;;;;;;9.20;3.50;;;;;;;19.66;41.10;95786.44;10289232;28;20053;-56
2022/04/06 06:29:26;;;;;;;10.35;3.47;;;;;;;19.67;41.21;95786.09;10289615;28;20050;-56
2022/04/06 06:34:46;;;;;;;10.30;3.67;;;;;;;19.69;41.02;95788.47;10298107;28;20428;-53
2022/04/06 06:40:06;;;;;;;8.00;3.13;;;;;;;19.68;41.07;95798.50;10284787;28;20089;-56
2022/04/06 06:45:25;;;;;;;9.43;3.30;;;;;;;19.70;41.00;95806.25;10288722;28;20495;-54
2022/04/06 06:50:47;;;;;;;9.60;3.53;;;;;;;19.70;40.96;95798.94;10280625;28;20069;-57
2022/04/06 06:56:07;;;;;;;6.47;2.78;;;;;;;19.70;41.07;95793.53;10300883;28;20045;-56
2022/04/06 07:01:27;;;;;;;11.32;3.22;;;;;;;19.71;41.03;95792.41;10285113;28;20424;-53
2022/04/06 07:06:46;;;;;;;7.57;2.83;;;;;;;19.71;40.84;95805.13;10290163;28;20042;-55
2022/04/06 07:12:06;;;;;;;8.60;3.42;;;;;;;19.71;40.96;95797.81;10297331;28;20054;-54
2022/04/06 07:17:26;;;;;;;9.00;3.28;;;;;;;19.71;40.78;95797.81;10288762;28;20050;-57
2022/04/06 07:22:45;;;;;;;6.97;2.65;;;;;;;19.70;40.71;95796.22;10301247;28;20046;-57
2022/04/06 07:28:05;;;;;;;7.57;2.97;;;;;;;19.70;40.85;95803.56;10283167;28;20061;-53
2022/04/06 07:33:24;;;;;;;6.47;2.78;;;;;;;19.71;40.87;95807.81;10285428;28;20057;-57
2022/04/06 07:38:44;;;;;;;9.57;2.90;;;;;;;19.71;40.87;95794.31;10298301;28;20050;-56
2022/04/06 07:44:05;;;;;;;6.05;2.58;;;;;;;19.70;40.66;95803.56;10282898;28;20459;-55
2022/04/06 07:49:26;;;;;;;6.00;2.40;;;;;;;19.71;40.84;95805.13;10286663;28;20110;-56
2022/04/06 07:54:46;;;;;;;4.65;2.42;;;;;;;19.70;40.75;95796.22;10288903;28;20078;-54
2022/04/06 08:00:15;;;;;;;5.13;2.50;;;;;;;19.70;40.89;95798.16;10286214;28;20050;-55
2022/04/06 08:05:35;;;;;;;6.70;2.40;;;;;;;19.71;40.78;95788.91;10285797;28;20055;-57
2022/04/06 08:10:55;;;;;;;5.20;2.65;;;;;;;19.72;40.88;95795.91;10298849;28;20054;-56
2022/04/06 08:16:15;;;;;;;4.72;2.30;;;;;;;19.69;40.78;95783.84;10285335;28;20405;-56
2022/04/06 08:21:35;;;;;;;7.13;2.55;;;;;;;19.70;40.67;95782.72;10283705;28;20055;-56
2022/04/06 08:26:54;;;;;;;6.10;2.40;;;;;;;19.70;40.74;95784.66;10271063;28;20058;-55
2022/04/06 08:32:14;;;;;;;6.80;2.45;;;;;;;19.69;40.83;95789.25;10280766;28;20047;-53
2022/04/06 08:37:35;;;;;;;5.80;2.28;;;;;;;19.69;40.72;95797.34;10287800;28;20563;-56
2022/04/06 08:42:54;;;;;;;4.45;2.03;;;;;;;19.68;40.69;95789.59;10288141;28;20054;-55
2022/04/06 08:48:14;;;;;;;4.22;2.05;;;;;;;19.68;40.72;95800.41;10273924;28;20062;-56
2022/04/06 08:53:39;;;;;;;4.60;2.35;;;;;;;19.68;40.79;95790.38;10288375;28;20110;-53
2022/04/06 08:59:00;;;;;;;3.78;2.22;;;;;;;19.68;40.87;95795.00;10288232;28;20054;-56
2022/04/06 09:04:20;;;;;;;4.93;2.33;;;;;;;19.67;40.75;95785.34;10284841;28;20053;-55
2022/04/06 09:09:40;;;;;;;5.90;2.17;;;;;;;19.66;40.84;95778.34;10285535;28;20066;-56
2022/04/06 09:15:11;;;;;;;4.25;2.10;;;;;;;19.66;40.78;95789.16;10282614;28;20058;-54
2022/04/06 09:20:31;;;;;;;4.95;2.08;;;;;;;19.65;40.72;95788.38;10283935;28;20095;-55
2022/04/06 09:25:50;;;;;;;3.92;2.10;;;;;;;19.64;40.61;95778.72;10281504;28;20506;-56
2022/04/06 09:31:13;;;;;;;3.05;1.77;;;;;;;19.64;40.67;95772.50;10298269;28;20046;-55
2022/04/06 09:36:34;;;;;;;5.10;2.30;;;;;;;19.63;40.73;95765.56;10292023;28;20051;-55
2022/04/06 09:41:59;;;;;;;4.40;2.08;;;;;;;19.62;40.67;95758.56;10286529;28;20178;-55
2022/04/06 09:52:57;;;;;;;4.97;1.83;;;;;;;19.61;40.70;95762.41;10303424;28;20050;-56
2022/04/06 09:58:17;;;;;;;2.97;1.92;;;;;;;19.59;40.58;95760.06;10293463;28;20320;-54
2022/04/06 10:03:39;;;;;;;3.67;1.80;;;;;;;19.59;40.61;95756.56;10278965;28;20051;-54
2022/04/06 10:09:00;;;;;;;4.00;1.95;;;;;;;19.59;40.78;95756.56;10297993;28;20050;-56
2022/04/06 10:14:23;;;;;;;5.30;2.00;;;;;;;19.57;40.66;95751.53;10292257;28;20097;-55
2022/04/06 10:19:47;;;;;;;3.35;1.90;;;;;;;19.58;40.76;95736.88;10292813;28;20055;-56
2022/04/06 10:25:14;;;;;;;4.35;1.85;;;;;;;19.56;40.58;95731.84;10299654;28;20039;-55
2022/04/06 10:30:34;;;;;;;3.35;1.52;;;;;;;19.55;40.83;95726.78;10291455;28;20502;-57
2022/04/06 10:36:19;;;;;;;3.08;1.70;;;;;;;19.54;40.67;95736.81;10289074;28;20462;-54
2022/04/06 10:42:11;;;;;;;3.05;1.70;;;;;;;19.54;40.78;95722.50;10303833;28;20190;-56
2022/04/06 10:47:32;;;;;;;2.65;1.63;;;;;;;19.52;40.68;95717.47;10319629;28;20095;-56
2022/04/06 10:53:20;;;;;;;3.78;1.95;;;;;;;19.54;40.80;95717.09;10290332;28;20054;-54
2022/04/06 10:58:55;;;;;;;3.30;1.67;;;;;;;19.53;41.33;95710.13;10285023;28;20097;-55
2022/04/06 11:04:22;;;;;;;2.65;1.52;;;;;;;19.52;41.34;95711.25;10291219;28;20506;-53
2022/04/06 11:15:20;;;;;;;3.83;1.63;;;;;;;19.52;41.25;95690.44;10287345;28;20550;-53
2022/04/06 11:20:40;;;;;;;12.35;3.53;;;;;;;19.51;41.54;95686.16;10303393;28;20047;-56
2022/04/06 11:26:00;;;;;;;3.95;1.95;;;;;;;19.51;41.67;95683.47;10284016;28;20070;-52
2022/04/06 11:31:19;;;;;;;61.20;30.08;;;;;;;19.52;43.48;95681.53;10288185;28;20063;-53
2022/04/06 11:36:39;;;;;;;75.07;32.83;;;;;;;19.53;44.17;95670.38;10284304;28;20059;-54
2022/04/06 11:42:00;;;;;;;43.28;21.55;;;;;;;19.55;45.47;95673.53;10298144;28;20506;-57
2022/04/06 11:47:27;;;;;;;41.83;22.38;;;;;;;19.54;44.90;95671.97;10288106;28;20058;-57
2022/04/06 11:52:47;;;;;;;35.97;18.58;;;;;;;19.53;44.21;95664.97;10282967;28;20069;-57
2022/04/06 11:58:07;;;;;;;32.05;16.80;;;;;;;19.55;43.77;95653.84;10300872;28;20050;-56
2022/04/06 12:03:30;;;;;;;29.63;15.02;;;;;;;19.57;43.46;95654.25;10287374;28;20428;-56
2022/04/06 12:08:50;;;;;;;22.75;12.73;;;;;;;19.56;43.04;95641.88;10285556;28;20061;-56
2022/04/06 12:14:11;;;;;;;20.60;11.63;;;;;;;19.58;42.47;95633.44;10286514;28;20055;-56
2022/04/06 12:19:31;;;;;;;19.65;11.02;;;;;;;19.59;42.09;95629.59;10285265;28;20453;-56
2022/04/06 12:24:51;;;;;;;16.35;9.05;;;;;;;19.60;41.51;95631.16;10304415;28;20062;-56
2022/04/06 12:30:11;;;;;;;14.48;8.50;;;;;;;19.62;41.17;95623.47;10285980;28;20133;-56
2022/04/06 12:35:30;;;;;;;14.95;8.23;;;;;;;19.62;40.75;95612.69;10312776;28;20530;-56
2022/04/06 12:41:06;;;;;;;11.73;7.00;;;;;;;19.63;40.32;95615.03;10274099;28;20059;-57
2022/04/06 12:46:38;;;;;;;10.40;6.20;;;;;;;19.65;40.11;95607.34;10297642;28;20042;-57
2022/04/06 12:52:20;;;;;;;9.77;5.18;;;;;;;19.68;39.74;95595.03;10301072;28;20050;-53
2022/04/06 12:57:40;;;;;;;8.35;4.63;;;;;;;19.68;39.54;95584.25;10303888;28;20190;-53
2022/04/06 13:03:00;;;;;;;7.57;4.30;;;;;;;19.70;39.27;95580.06;10297290;28;20050;-56
2022/04/06 13:08:22;;;;;;;5.60;3.78;;;;;;;19.72;38.87;95574.34;10299048;28;20074;-55
2022/04/06 13:13:42;;;;;;;3.65;2.83;;;;;;;19.73;38.27;95562.38;10303969;28;20517;-53
2022/04/06 13:19:04;;;;;;;3.10;2.15;;;;;;;19.75;38.09;95565.50;10303631;28;20078;-53
2022/04/06 13:24:24;;;;;;;3.15;2.40;;;;;;;19.76;38.22;95553.59;10305625;28;20109;-56
2022/04/06 13:29:44;;;;;;;3.45;2.33;;;;;;;19.76;37.87;95548.19;10300721;28;20059;-55
2022/04/06 13:35:04;;;;;;;3.30;2.00;;;;;;;19.80;37.58;95540.91;10307520;28;20043;-57
2022/04/06 13:40:25;;;;;;;4.90;2.00;;;;;;;19.81;37.39;95528.19;10307045;28;20039;-56
2022/04/06 13:45:45;;;;;;;2.88;1.73;;;;;;;19.81;37.24;95534.38;10291323;28;20050;-57
2022/04/06 13:51:06;;;;;;;2.47;1.40;;;;;;;19.84;37.04;95522.06;10293281;28;20388;-53
2022/04/06 13:56:26;;;;;;;2.55;1.60;;;;;;;19.86;36.95;95519.81;10290068;28;20090;-56
2022/04/06 14:01:47;;;;;;;4.63;2.17;;;;;;;19.87;36.83;95507.84;10291329;28;20051;-57
2022/04/06 14:07:06;;;;;;;2.72;1.73;;;;;;;19.89;36.80;95511.75;10284008;28;20057;-57
2022/04/06 14:12:26;;;;;;;3.75;1.77;;;;;;;19.91;36.51;95487.84;10290186;28;20490;-57
2022/04/06 14:17:46;;;;;;;4.95;2.13;;;;;;;19.93;36.60;95477.47;10283264;28;20137;-56
2022/04/06 14:23:06;;;;;;;4.70;2.05;;;;;;;19.94;36.41;95473.63;10290969;28;20054;-54
2022/04/06 14:28:25;;;;;;;6.55;2.10;;;;;;;19.96;36.34;95478.66;10308650;28;20142;-55
2022/04/06 14:33:44;;;;;;;6.07;2.50;;;;;;;19.99;36.17;95469.81;10307763;28;20054;-56
2022/04/06 14:39:03;;;;;;;5.50;2.28;;;;;;;20.01;36.12;95456.72;10302132;28;20438;-56
2022/04/06 14:44:25;;;;;;;5.45;2.33;;;;;;;20.05;36.16;95448.69;10292515;28;20458;-53
2022/04/06 14:49:44;;;;;;;4.82;2.22;;;;;;;20.06;36.15;95447.56;10278013;28;20438;-56
2022/04/06 14:55:04;;;;;;;5.53;2.28;;;;;;;20.09;35.97;95438.72;10283896;28;20054;-56
2022/04/06 15:00:25;;;;;;;4.80;2.08;;;;;;;20.11;36.04;95433.72;10286392;28;20102;-57
2022/04/06 15:05:46;;;;;;;4.50;2.05;;;;;;;20.12;35.96;95417.16;10289392;28;20050;-57
2022/04/06 15:11:06;;;;;;;4.57;2.13;;;;;;;20.15;35.97;95429.19;10279282;28;20066;-55
2022/04/06 15:16:25;;;;;;;3.20;1.70;;;;;;;20.18;36.01;95423.03;10288443;28;20047;-55
2022/04/06 15:21:44;;;;;;;7.05;1.92;;;;;;;20.21;36.05;95435.06;10283786;28;20058;-53
2022/04/06 15:27:04;;;;;;;5.82;1.95;;;;;;;20.22;36.47;95442.81;10286415;28;20447;-57
2022/04/06 15:32:24;;;;;;;5.43;1.90;;;;;;;20.25;36.91;95430.50;10301863;28;20098;-56
2022/04/06 15:37:44;;;;;;;4.70;2.00;;;;;;;20.28;37.47;95421.66;10288056;28;20049;-59
2022/04/06 15:43:04;;;;;;;3.15;1.65;;;;;;;20.29;37.73;95421.31;10318369;28;20649;-55
2022/04/06 15:48:23;;;;;;;31.20;9.68;;;;;;;20.30;38.42;95416.66;10282757;28;20054;-56
2022/04/06 15:53:43;;;;;;;11.23;4.63;;;;;;;20.29;40.26;95413.19;10276367;28;20047;-55
2022/04/06 15:59:03;;;;;;;506.73;143.18;;;;;;;20.31;41.59;95405.50;10280754;28;20054;-52
2022/04/06 16:04:23;;;;;;;102.10;33.35;;;;;;;20.32;41.84;95400.84;10300665;28;20051;-53
2022/04/06 16:09:42;;;;;;;82.45;27.90;;;;;;;20.34;41.92;95395.88;10284543;28;20117;-55
2022/04/06 16:15:03;;;;;;;68.20;21.95;;;;;;;20.34;42.20;95396.63;10287899;28;20407;-56
2022/04/06 16:20:23;;;;;;;66.70;21.00;;;;;;;20.34;42.94;95395.88;10282103;28;20509;-54
2022/04/06 16:25:42;;;;;;;63.30;19.70;;;;;;;20.34;43.45;95402.03;10282432;28;20501;-56
2022/04/06 16:31:04;;;;;;;62.05;19.52;;;;;;;20.33;43.42;95395.09;10286336;28;20051;-55
2022/04/06 16:36:24;;;;;;;55.03;17.00;;;;;;;20.33;43.51;95389.69;10284262;28;20057;-53
2022/04/06 16:41:45;;;;;;;51.13;16.40;;;;;;;20.33;43.55;95392.38;10296503;28;20065;-53
2022/04/06 16:47:05;;;;;;;50.60;16.00;;;;;;;20.34;43.30;95387.75;10274978;28;20470;-55
2022/04/06 16:52:40;;;;;;;41.25;13.70;;;;;;;20.32;42.97;95377.28;10264065;28;20098;-54
2022/04/06 16:58:01;;;;;;;35.05;12.77;;;;;;;20.32;43.15;95374.59;10265767;28;20067;-53
2022/04/06 17:03:21;;;;;;;37.10;12.43;;;;;;;20.33;43.25;95376.16;10264304;28;20059;-54
2022/04/06 17:08:41;;;;;;;39.22;13.25;;;;;;;20.35;43.18;95373.09;10269422;28;20570;-56
2022/04/06 17:14:01;;;;;;;35.00;11.15;;;;;;;20.34;43.47;95366.88;10279975;28;20074;-57
2022/04/06 17:19:21;;;;;;;18.45;6.13;;;;;;;20.33;41.81;95362.63;10296123;28;20045;-56
2022/04/06 17:24:40;;;;;;;26.38;9.13;;;;;;;20.32;42.89;95365.69;10272784;28;20050;-52
2022/04/06 17:30:00;;;;;;;12.75;4.22;;;;;;;20.28;39.65;95359.47;10292983;28;20051;-54
2022/04/06 17:35:20;;;;;;;4.75;2.00;;;;;;;20.01;35.95;95358.66;10288357;28;20556;-53
2022/04/06 17:40:40;;;;;;;1.73;1.50;;;;;;;19.84;35.31;95354.53;10288923;28;20058;-53
2022/04/06 17:46:02;;;;;;;1.63;1.50;;;;;;;19.73;35.00;95348.94;10282988;28;20169;-53
2022/04/06 17:51:22;;;;;;;1.73;1.50;;;;;;;19.75;36.23;95344.72;10285695;28;20051;-57
2022/04/06 17:56:42;;;;;;;2.60;1.70;;;;;;;19.83;37.39;95348.31;10288819;28;20059;-58
2022/04/06 18:02:02;;;;;;;3.88;1.60;;;;;;;19.89;37.97;95352.28;10301649;28;20126;-57
2022/04/06 18:07:22;;;;;;;3.42;1.75;;;;;;;19.93;39.00;95347.75;10302875;28;20046;-55
2022/04/06 18:18:21;;;;;;;3.15;1.65;;;;;;;20.00;39.86;95357.09;10289477;28;20060;-57
2022/04/06 18:23:40;;;;;;;6.82;1.70;;;;;;;20.01;40.07;95347.84;10289055;28;20473;-54
2022/04/06 18:29:00;;;;;;;2.92;1.63;;;;;;;20.03;40.85;95348.25;10289796;28;20066;-52
2022/04/06 18:34:25;;;;;;;4.45;1.80;;;;;;;20.04;41.26;95357.94;10286220;28;20079;-55
2022/04/06 18:39:44;;;;;;;4.95;2.25;;;;;;;20.03;41.76;95351.75;10290564;28;20057;-53
2022/04/06 18:45:05;;;;;;;5.43;2.28;;;;;;;20.03;42.33;95351.75;10286491;28;20074;-58
2022/04/06 18:50:24;;;;;;;4.00;1.95;;;;;;;20.04;42.73;95353.31;10287281;28;20129;-58
2022/04/06 18:55:44;;;;;;;4.93;2.10;;;;;;;20.04;43.30;95344.41;10292025;28;20046;-58
2022/04/06 19:01:04;;;;;;;6.72;2.10;;;;;;;20.04;43.56;95345.19;10288544;28;20403;-52
2022/04/06 19:06:23;;;;;;;3.42;2.00;;;;;;;20.04;43.82;95344.41;10290331;28;20046;-54
2022/04/06 19:11:44;;;;;;;5.00;2.10;;;;;;;20.05;44.12;95335.16;10283097;28;20055;-56
2022/04/06 19:17:04;;;;;;;5.00;2.13;;;;;;;20.04;44.31;95345.19;10288405;28;20051;-57
2022/04/06 19:22:24;;;;;;;3.78;2.10;;;;;;;20.04;44.48;95342.50;10288518;28;20395;-57
2022/04/06 19:27:44;;;;;;;3.80;2.20;;;;;;;20.03;44.66;95338.25;10282651;28;20059;-57
2022/04/06 19:33:03;;;;;;;7.55;1.92;;;;;;;20.04;44.97;95334.38;10290069;28;20387;-57
2022/04/06 19:38:23;;;;;;;4.32;2.13;;;;;;;20.05;45.02;95335.16;10282459;28;20058;-57
2022/04/06 19:43:42;;;;;;;3.75;2.05;;;;;;;20.07;45.19;95340.97;10291688;28;20058;-57
2022/04/06 19:49:04;;;;;;;3.42;2.30;;;;;;;20.07;45.31;95327.47;10286893;28;20047;-58
2022/04/06 19:54:23;;;;;;;5.70;2.17;;;;;;;20.08;45.42;95332.50;10291402;28;20167;-56
2022/04/06 19:59:44;;;;;;;4.03;2.25;;;;;;;20.09;45.62;95325.97;10273086;28;20059;-56
2022/04/06 20:05:05;;;;;;;4.22;2.10;;;;;;;20.10;45.59;95321.34;10253107;28;20054;-57
2022/04/06 20:10:24;;;;;;;4.18;2.30;;;;;;;20.11;45.71;95322.88;10304016;28;20090;-58
2022/04/06 20:15:44;;;;;;;3.63;1.80;;;;;;;20.11;45.94;95320.97;10295554;28;20110;-57
2022/04/06 20:21:04;;;;;;;4.47;2.17;;;;;;;20.14;45.91;95308.66;10280459;28;20066;-56
2022/04/06 20:26:24;;;;;;;4.10;2.30;;;;;;;20.13;46.14;95304.38;10282055;28;20517;-58
2022/04/06 20:31:44;;;;;;;3.97;2.05;;;;;;;20.12;46.50;95297.41;10305720;28;20053;-57
2022/04/06 20:37:06;;;;;;;2.60;1.83;;;;;;;20.13;46.52;95301.66;10290432;28;20043;-57
2022/04/06 20:42:26;;;;;;;2.42;1.60;;;;;;;20.13;46.44;95298.97;10274885;28;20450;-58
2022/04/06 20:47:47;;;;;;;3.22;1.85;;;;;;;20.13;46.45;95296.25;10296268;28;20042;-57
2022/04/06 20:53:06;;;;;;;4.72;1.90;;;;;;;20.14;46.43;95292.44;10281048;28;20047;-57
2022/04/06 20:58:26;;;;;;;2.85;1.80;;;;;;;20.12;46.52;95284.69;10298801;28;20087;-57
2022/04/06 21:03:45;;;;;;;3.03;1.80;;;;;;;20.12;46.53;95294.72;10291048;28;20062;-57
2022/04/06 21:09:06;;;;;;;2.80;1.98;;;;;;;20.12;46.58;95292.00;10293922;28;20047;-58
2022/04/06 21:14:26;;;;;;;3.78;1.88;;;;;;;20.10;46.75;95286.19;10286428;28;20422;-57
2022/04/06 21:19:45;;;;;;;2.85;1.65;;;;;;;20.10;46.76;95280.78;10282854;28;20051;-58
2022/04/06 21:25:06;;;;;;;3.97;2.10;;;;;;;20.10;46.69;95281.56;10285026;28;20055;-56
2022/04/06 21:30:26;;;;;;;2.78;1.50;;;;;;;20.11;46.65;95290.44;10301688;28;20055;-58
2022/04/06 21:35:45;;;;;;;2.08;1.58;;;;;;;20.09;46.69;95280.00;10301764;28;20391;-57
2022/04/06 21:41:05;;;;;;;3.63;1.90;;;;;;;20.08;46.75;95280.38;10306863;28;20045;-57
2022/04/06 21:46:25;;;;;;;2.65;1.90;;;;;;;20.08;46.75;95283.84;10285908;28;20078;-57
2022/04/06 21:51:44;;;;;;;3.85;1.65;;;;;;;20.07;46.76;95267.97;10300358;28;20049;-58
2022/04/06 21:57:04;;;;;;;2.15;1.52;;;;;;;20.07;46.67;95265.28;10285628;28;20046;-57
2022/04/06 22:02:23;;;;;;;3.83;2.10;;;;;;;20.06;46.72;95266.44;10287672;28;20055;-57
2022/04/06 22:07:43;;;;;;;2.45;1.48;;;;;;;20.05;46.59;95267.56;10277603;28;20560;-57
2022/04/06 22:13:03;;;;;;;3.03;1.50;;;;;;;20.05;46.59;95267.56;10292250;28;20057;-58
2022/04/06 22:18:23;;;;;;;2.63;1.35;;;;;;;20.06;46.60;95263.75;10288215;28;20442;-57
2022/04/06 22:23:42;;;;;;;1.85;1.42;;;;;;;20.03;46.70;95256.34;10291998;28;20134;-54
2022/04/06 22:29:04;;;;;;;2.25;1.50;;;;;;;20.02;46.67;95265.59;10274113;28;20067;-57
2022/04/06 22:34:23;;;;;;;3.05;1.70;;;;;;;20.01;46.61;95264.03;10302935;28;20053;-58
2022/04/06 22:39:43;;;;;;;1.83;1.58;;;;;;;20.00;46.56;95260.56;10290507;28;20525;-57
2022/04/06 22:45:03;;;;;;;2.92;1.58;;;;;;;20.00;46.61;95270.59;10275842;28;20134;-57
2022/04/06 22:50:23;;;;;;;1.85;1.25;;;;;;;20.00;46.53;95270.59;10296976;28;20038;-55
2022/04/06 22:55:43;;;;;;;4.15;1.58;;;;;;;19.99;46.62;95269.03;10291538;28;20411;-57
2022/04/06 23:01:02;;;;;;;1.83;1.50;;;;;;;19.97;46.52;95261.28;10300231;28;20035;-57
2022/04/06 23:06:23;;;;;;;2.63;1.40;;;;;;;19.97;46.52;95255.88;10286468;28;20391;-57
2022/04/06 23:11:43;;;;;;;2.15;1.23;;;;;;;19.96;46.65;95265.13;10289390;28;20058;-57
2022/04/06 23:17:03;;;;;;;2.10;1.60;;;;;;;19.95;46.64;95267.06;10287472;28;20054;-56
2022/04/06 23:22:22;;;;;;;2.35;1.27;;;;;;;19.95;46.58;95261.66;10286852;28;20457;-58
2022/04/06 23:27:42;;;;;;;2.40;1.23;;;;;;;19.94;46.44;95257.38;10284648;28;20055;-56
2022/04/06 23:33:02;;;;;;;2.22;1.38;;;;;;;19.92;46.41;95259.69;10287774;28;20055;-58
2022/04/06 23:38:21;;;;;;;1.83;1.45;;;;;;;19.90;46.37;95259.25;10287041;28;20057;-57
2022/04/06 23:43:41;;;;;;;3.10;1.63;;;;;;;19.91;46.47;95252.69;10301005;28;20054;-57
2022/04/06 23:49:01;;;;;;;1.88;1.38;;;;;;;19.88;46.29;95248.03;10281430;28;20066;-58
2022/04/06 23:54:20;;;;;;;2.38;1.30;;;;;;;19.88;46.27;95241.84;10284488;28;20055;-57
2022/04/06 23:59:40;;;;;;;2.15;1.17;;;;;;;19.88;46.33;95248.03;10293270;28;20501;-57
